Time;durP1;ratioP1;P1;durP2;ratioP2;P2;SDS_P1;SDS_P2;PMS_P1;PMS_P2;Temp;Humidity;BMP_temperature;BMP_pressure;BME280_temperature;BME280_humidity;BME280_pressure;Samples;Min_cycle;Max_cycle;Signal;HPM_P1;HPM_P2
2021/08/14 00:01:53;;;;;;;0.00;0.00;;;;;;;;;;10449866;28;20040;-28
2021/08/14 00:06:56;;;;;;;0.00;0.00;;;;;;;;;;10440689;28;20146;-28
2021/08/14 00:11:59;;;;;;;0.00;0.00;;;;;;;;;;10444437;28;20033;-27
2021/08/14 00:17:03;;;;;;;0.00;0.00;;;;;;;;;;10443351;28;20753;-26
2021/08/14 00:22:06;;;;;;;0.00;0.00;;;;;;;;;;10445329;28;20037;-27
2021/08/14 00:27:08;;;;;;;0.00;0.00;;;;;;;;;;10428585;28;20057;-26
2021/08/14 00:32:12;;;;;;;0.00;0.00;;;;;;;;;;10416646;28;20045;-27
2021/08/14 00:37:15;;;;;;;0.00;0.00;;;;;;;;;;10436780;28;20041;-27
2021/08/14 00:42:18;;;;;;;0.00;0.00;;;;;;;;;;10435727;28;20048;-26
2021/08/14 00:47:25;;;;;;;0.00;0.00;;;;;;;;;;10436837;28;20045;-28
2021/08/14 00:52:28;;;;;;;0.00;0.00;;;;;;;;;;10434869;28;20056;-27
2021/08/14 00:57:31;;;;;;;0.00;0.00;;;;;;;;;;10434165;28;20057;-28
2021/08/14 01:02:35;;;;;;;0.00;0.00;;;;;;;;;;10436858;28;20107;-26
2021/08/14 01:07:38;;;;;;;0.00;0.00;;;;;;;;;;10436203;28;20052;-26
2021/08/14 01:12:41;;;;;;;0.00;0.00;;;;;;;;;;10435308;28;20044;-26
2021/08/14 01:17:45;;;;;;;0.00;0.00;;;;;;;;;;10436135;28;20478;-26
2021/08/14 01:22:48;;;;;;;0.00;0.00;;;;;;;;;;10433890;28;20091;-26
2021/08/14 01:27:52;;;;;;;0.00;0.00;;;;;;;;;;10434109;28;20048;-27
2021/08/14 01:32:55;;;;;;;0.00;0.00;;;;;;;;;;10435589;28;20045;-27
2021/08/14 01:37:58;;;;;;;0.00;0.00;;;;;;;;;;10435329;28;20045;-26
2021/08/14 01:43:02;;;;;;;0.00;0.00;;;;;;;;;;10432704;28;20399;-26
2021/08/14 01:48:04;;;;;;;0.00;0.00;;;;;;;;;;10435760;28;20053;-27
2021/08/14 01:53:07;;;;;;;0.17;0.00;;;;;;;;;;10432890;28;20085;-27
2021/08/14 01:58:11;;;;;;;0.10;0.00;;;;;;;;;;10433616;28;20060;-26
2021/08/14 02:03:14;;;;;;;0.00;0.00;;;;;;;;;;10434285;28;20052;-26
2021/08/14 02:08:17;;;;;;;0.00;0.00;;;;;;;;;;10433778;28;20045;-25
2021/08/14 02:13:21;;;;;;;0.00;0.00;;;;;;;;;;10442815;28;20390;-26
2021/08/14 02:18:23;;;;;;;0.00;0.00;;;;;;;;;;10433586;28;20049;-27
2021/08/14 02:23:26;;;;;;;0.00;0.00;;;;;;;;;;10433848;28;20049;-29
2021/08/14 02:28:30;;;;;;;0.00;0.00;;;;;;;;;;10433128;28;20048;-27
2021/08/14 02:33:33;;;;;;;0.00;0.00;;;;;;;;;;10438009;28;20048;-27
2021/08/14 02:38:37;;;;;;;0.00;0.00;;;;;;;;;;10442015;28;20060;-27
2021/08/14 02:43:41;;;;;;;0.00;0.00;;;;;;;;;;10441256;28;20049;-27
2021/08/14 02:48:43;;;;;;;0.00;0.00;;;;;;;;;;10444678;28;20280;-27
2021/08/14 02:53:46;;;;;;;0.00;0.00;;;;;;;;;;10441603;28;20426;-27
2021/08/14 02:58:50;;;;;;;0.00;0.00;;;;;;;;;;10440211;28;20052;-28
2021/08/14 03:03:52;;;;;;;0.00;0.00;;;;;;;;;;10441423;28;20406;-27
2021/08/14 03:08:56;;;;;;;0.00;0.00;;;;;;;;;;10440086;28;20047;-27
2021/08/14 03:14:00;;;;;;;0.00;0.00;;;;;;;;;;10440620;28;20052;-27
2021/08/14 03:19:02;;;;;;;0.00;0.00;;;;;;;;;;10436678;28;20512;-26
2021/08/14 03:24:05;;;;;;;0.00;0.00;;;;;;;;;;10440136;28;20049;-26
2021/08/14 03:29:10;;;;;;;0.00;0.00;;;;;;;;;;10438232;28;20045;-27
2021/08/14 03:34:13;;;;;;;0.00;0.00;;;;;;;;;;10437121;28;20124;-27
2021/08/14 03:39:16;;;;;;;0.00;0.00;;;;;;;;;;10438690;28;20418;-27
2021/08/14 03:44:20;;;;;;;0.00;0.00;;;;;;;;;;10437382;28;20037;-27
2021/08/14 03:49:23;;;;;;;0.00;0.00;;;;;;;;;;10437709;28;20897;-26
2021/08/14 03:54:26;;;;;;;0.00;0.00;;;;;;;;;;10436951;28;20065;-27
2021/08/14 03:59:30;;;;;;;0.00;0.00;;;;;;;;;;10437700;28;20072;-26
2021/08/14 04:04:32;;;;;;;0.00;0.00;;;;;;;;;;10417911;28;20479;-27
2021/08/14 04:09:35;;;;;;;0.00;0.00;;;;;;;;;;10435549;28;20271;-26
2021/08/14 04:14:39;;;;;;;0.00;0.00;;;;;;;;;;10437387;28;20143;-26
2021/08/14 04:19:57;;;;;;;0.00;0.00;;;;;;;;;;10436179;28;20052;-26
2021/08/14 04:25:00;;;;;;;0.00;0.00;;;;;;;;;;10434533;28;20071;-26
2021/08/14 04:30:04;;;;;;;0.00;0.00;;;;;;;;;;10436258;28;20037;-26
2021/08/14 04:35:08;;;;;;;0.00;0.00;;;;;;;;;;10433192;28;20037;-27
2021/08/14 04:40:13;;;;;;;0.00;0.00;;;;;;;;;;10435620;28;20815;-26
2021/08/14 04:45:17;;;;;;;0.00;0.00;;;;;;;;;;10436076;28;20486;-26
2021/08/14 04:50:21;;;;;;;0.00;0.00;;;;;;;;;;10436254;28;20056;-27
2021/08/14 04:55:24;;;;;;;0.00;0.00;;;;;;;;;;10434050;28;20049;-26
2021/08/14 05:00:28;;;;;;;0.00;0.00;;;;;;;;;;10437949;28;20486;-28
2021/08/14 05:05:31;;;;;;;0.00;0.00;;;;;;;;;;10434228;28;20047;-26
2021/08/14 05:10:35;;;;;;;0.00;0.00;;;;;;;;;;10432940;28;20044;-26
2021/08/14 05:15:39;;;;;;;0.00;0.00;;;;;;;;;;10433859;28;20057;-27
2021/08/14 05:20:42;;;;;;;0.00;0.00;;;;;;;;;;10435207;28;20048;-26
2021/08/14 05:25:48;;;;;;;0.00;0.00;;;;;;;;;;10432491;28;20053;-26
2021/08/14 05:30:52;;;;;;;0.00;0.00;;;;;;;;;;10435258;28;20060;-26
2021/08/14 05:35:55;;;;;;;0.30;0.00;;;;;;;;;;10433662;28;20048;-26
2021/08/14 05:40:59;;;;;;;0.00;0.00;;;;;;;;;;10432485;28;20126;-26
2021/08/14 05:46:04;;;;;;;0.00;0.00;;;;;;;;;;10433293;28;20049;-26
2021/08/14 05:51:07;;;;;;;0.00;0.00;;;;;;;;;;10435877;28;20209;-27
2021/08/14 05:56:09;;;;;;;0.00;0.00;;;;;;;;;;10429716;28;20059;-26
2021/08/14 06:01:13;;;;;;;0.00;0.00;;;;;;;;;;10426634;28;20049;-28
2021/08/14 06:06:17;;;;;;;0.00;0.00;;;;;;;;;;10429302;28;20053;-26
2021/08/14 06:11:19;;;;;;;0.00;0.00;;;;;;;;;;10437497;28;20049;-26
2021/08/14 06:16:24;;;;;;;0.00;0.00;;;;;;;;;;10439052;28;20045;-26
2021/08/14 06:21:27;;;;;;;0.00;0.00;;;;;;;;;;10438500;28;20040;-27
2021/08/14 06:26:30;;;;;;;0.00;0.00;;;;;;;;;;10437613;28;20045;-27
2021/08/14 06:31:34;;;;;;;0.00;0.00;;;;;;;;;;10438211;28;20037;-27
2021/08/14 06:36:37;;;;;;;0.00;0.00;;;;;;;;;;10417141;28;20049;-27
2021/08/14 06:41:40;;;;;;;0.00;0.00;;;;;;;;;;10434764;28;20488;-26
2021/08/14 06:46:45;;;;;;;0.00;0.00;;;;;;;;;;10432781;28;20053;-28
2021/08/14 06:51:48;;;;;;;0.00;0.00;;;;;;;;;;10435330;28;20048;-26
2021/08/14 06:56:51;;;;;;;0.00;0.00;;;;;;;;;;10434498;28;20413;-27
2021/08/14 07:01:55;;;;;;;0.00;0.00;;;;;;;;;;10438141;28;20033;-26
2021/08/14 07:06:59;;;;;;;0.00;0.00;;;;;;;;;;10417594;28;20045;-27
2021/08/14 07:12:02;;;;;;;0.00;0.00;;;;;;;;;;10437548;28;20041;-28
2021/08/14 07:17:06;;;;;;;0.00;0.00;;;;;;;;;;10431778;28;20041;-26
2021/08/14 07:22:09;;;;;;;0.00;0.00;;;;;;;;;;10437592;28;20044;-28
2021/08/14 07:27:12;;;;;;;0.00;0.00;;;;;;;;;;10435053;28;20044;-26
2021/08/14 07:32:16;;;;;;;0.00;0.00;;;;;;;;;;10435889;28;20805;-27
2021/08/14 07:37:19;;;;;;;0.00;0.00;;;;;;;;;;10415513;28;20037;-27
2021/08/14 07:42:22;;;;;;;0.00;0.00;;;;;;;;;;10436914;28;20506;-27
2021/08/14 07:47:26;;;;;;;0.00;0.00;;;;;;;;;;10433542;28;20041;-28
2021/08/14 07:52:28;;;;;;;0.00;0.00;;;;;;;;;;10434190;28;20521;-28
2021/08/14 07:57:31;;;;;;;0.00;0.00;;;;;;;;;;10434715;28;20037;-27
2021/08/14 08:02:35;;;;;;;0.00;0.00;;;;;;;;;;10435186;28;20075;-28
2021/08/14 08:07:40;;;;;;;0.00;0.00;;;;;;;;;;10432902;28;20045;-27
2021/08/14 08:12:44;;;;;;;0.00;0.00;;;;;;;;;;10432424;28;20044;-27
2021/08/14 08:17:48;;;;;;;0.00;0.00;;;;;;;;;;10433238;28;20040;-27
2021/08/14 08:22:51;;;;;;;0.00;0.00;;;;;;;;;;10430515;28;20490;-27
2021/08/14 08:27:55;;;;;;;0.00;0.00;;;;;;;;;;10433336;28;20039;-29
2021/08/14 08:32:59;;;;;;;0.00;0.00;;;;;;;;;;10433482;28;20797;-27
2021/08/14 08:38:02;;;;;;;0.00;0.00;;;;;;;;;;10432741;28;20044;-28
2021/08/14 08:43:05;;;;;;;0.00;0.00;;;;;;;;;;10431418;28;20573;-27
2021/08/14 08:48:09;;;;;;;0.00;0.00;;;;;;;;;;10428153;28;20056;-27
2021/08/14 08:53:12;;;;;;;0.00;0.00;;;;;;;;;;10428363;28;20057;-27
2021/08/14 08:58:15;;;;;;;0.00;0.00;;;;;;;;;;10431907;28;20044;-27
2021/08/14 09:03:25;;;;;;;0.00;0.00;;;;;;;;;;10432680;28;20056;-27
2021/08/14 09:08:28;;;;;;;0.00;0.00;;;;;;;;;;10430995;28;20053;-27
2021/08/14 09:13:31;;;;;;;0.00;0.00;;;;;;;;;;10429570;28;20064;-28
2021/08/14 09:18:51;;;;;;;0.00;0.00;;;;;;;;;;10429039;28;20052;-28
2021/08/14 09:23:54;;;;;;;0.00;0.00;;;;;;;;;;10429065;28;20029;-28
2021/08/14 09:29:04;;;;;;;0.00;0.00;;;;;;;;;;10431682;28;20053;-28
2021/08/14 09:34:16;;;;;;;0.00;0.00;;;;;;;;;;10431658;28;20056;-28
2021/08/14 09:39:19;;;;;;;0.00;0.00;;;;;;;;;;10428796;28;20057;-28
2021/08/14 09:44:21;;;;;;;0.00;0.00;;;;;;;;;;10429391;28;20044;-27
2021/08/14 09:49:25;;;;;;;0.00;0.00;;;;;;;;;;10429265;28;20037;-28
2021/08/14 09:54:37;;;;;;;0.00;0.00;;;;;;;;;;10426912;28;20061;-27
2021/08/14 09:59:40;;;;;;;0.00;0.00;;;;;;;;;;10428669;28;20064;-28
2021/08/14 10:04:44;;;;;;;0.00;0.00;;;;;;;;;;10430075;28;20045;-28
2021/08/14 10:09:47;;;;;;;0.00;0.00;;;;;;;;;;10431018;28;20037;-28
2021/08/14 10:14:51;;;;;;;0.00;0.00;;;;;;;;;;10427437;28;20045;-28
2021/08/14 10:19:55;;;;;;;0.00;0.00;;;;;;;;;;10430886;28;20045;-29
2021/08/14 10:24:58;;;;;;;0.00;0.00;;;;;;;;;;10429924;28;20405;-27
2021/08/14 10:30:01;;;;;;;0.00;0.00;;;;;;;;;;10428242;28;20057;-26
2021/08/14 10:35:23;;;;;;;0.00;0.00;;;;;;;;;;10427099;28;20048;-27
2021/08/14 10:40:46;;;;;;;0.00;0.00;;;;;;;;;;10429111;28;20414;-27
2021/08/14 10:45:49;;;;;;;0.00;0.00;;;;;;;;;;10428094;28;20057;-27
2021/08/14 10:50:56;;;;;;;0.17;0.00;;;;;;;;;;10429095;28;20049;-27
2021/08/14 10:56:00;;;;;;;0.00;0.00;;;;;;;;;;10435536;28;20122;-28
2021/08/14 11:01:21;;;;;;;0.00;0.00;;;;;;;;;;10434319;28;20498;-26
2021/08/14 11:06:25;;;;;;;0.00;0.00;;;;;;;;;;10436190;28;20053;-26
2021/08/14 11:11:36;;;;;;;0.00;0.00;;;;;;;;;;10435701;28;20816;-26
2021/08/14 11:16:56;;;;;;;0.00;0.00;;;;;;;;;;10435047;28;20053;-26
2021/08/14 11:22:17;;;;;;;0.00;0.00;;;;;;;;;;10435364;28;20047;-27
2021/08/14 11:27:22;;;;;;;0.00;0.00;;;;;;;;;;10429308;28;20060;-28
2021/08/14 11:32:26;;;;;;;0.00;0.00;;;;;;;;;;10434023;28;20048;-26
2021/08/14 11:37:30;;;;;;;0.00;0.00;;;;;;;;;;10435038;28;20052;-27
2021/08/14 11:42:34;;;;;;;0.00;0.00;;;;;;;;;;10435619;28;20048;-27
2021/08/14 11:47:38;;;;;;;0.00;0.00;;;;;;;;;;10434976;28;20049;-27
2021/08/14 11:52:40;;;;;;;0.00;0.00;;;;;;;;;;10434379;28;20052;-28
2021/08/14 11:57:44;;;;;;;0.00;0.00;;;;;;;;;;10430484;28;20045;-30
2021/08/14 12:02:49;;;;;;;0.00;0.00;;;;;;;;;;10430761;28;20060;-27
2021/08/14 12:07:53;;;;;;;0.00;0.00;;;;;;;;;;10429802;28;20051;-26
2021/08/14 12:12:58;;;;;;;0.00;0.00;;;;;;;;;;10432478;28;20045;-26
2021/08/14 12:18:00;;;;;;;2.10;0.00;;;;;;;;;;10432293;28;20041;-26
2021/08/14 12:23:19;;;;;;;0.00;0.00;;;;;;;;;;10433696;28;20071;-28
2021/08/14 12:28:27;;;;;;;0.00;0.00;;;;;;;;;;10414840;28;20409;-25
2021/08/14 12:33:32;;;;;;;0.10;0.00;;;;;;;;;;10434621;28;20063;-25
2021/08/14 12:38:35;;;;;;;0.00;0.00;;;;;;;;;;10433437;28;20041;-26
2021/08/14 12:43:43;;;;;;;0.00;0.00;;;;;;;;;;10435487;28;20040;-26
2021/08/14 12:49:06;;;;;;;0.00;0.00;;;;;;;;;;10431253;28;20218;-26
2021/08/14 12:54:12;;;;;;;0.00;0.00;;;;;;;;;;10433649;28;20052;-25
2021/08/14 12:59:16;;;;;;;0.00;0.00;;;;;;;;;;10432419;28;20060;-25
2021/08/14 13:04:18;;;;;;;0.00;0.00;;;;;;;;;;10438623;28;20510;-26
2021/08/14 13:09:21;;;;;;;0.00;0.00;;;;;;;;;;10469004;28;20040;-25
2021/08/14 13:14:25;;;;;;;0.00;0.00;;;;;;;;;;10475119;28;20048;-26
2021/08/14 13:19:28;;;;;;;0.00;0.00;;;;;;;;;;10477152;28;20048;-25
2021/08/14 13:24:32;;;;;;;0.00;0.00;;;;;;;;;;10473538;28;20055;-26
2021/08/14 13:29:36;;;;;;;0.00;0.00;;;;;;;;;;10479009;28;20048;-27
2021/08/14 13:34:38;;;;;;;0.00;0.00;;;;;;;;;;10470919;28;20041;-26
2021/08/14 13:39:41;;;;;;;0.00;0.00;;;;;;;;;;10473430;28;20487;-25
2021/08/14 13:44:45;;;;;;;0.00;0.00;;;;;;;;;;10470279;28;20040;-26
2021/08/14 13:50:04;;;;;;;0.00;0.00;;;;;;;;;;10459413;28;20294;-26
2021/08/14 13:55:07;;;;;;;0.00;0.00;;;;;;;;;;10473240;28;20052;-26
2021/08/14 14:00:12;;;;;;;0.00;0.00;;;;;;;;;;10473679;28;20052;-26
2021/08/14 14:05:15;;;;;;;0.00;0.00;;;;;;;;;;10470127;28;20049;-26
2021/08/14 14:10:17;;;;;;;0.00;0.00;;;;;;;;;;10473748;28;20056;-26
2021/08/14 14:15:21;;;;;;;0.00;0.00;;;;;;;;;;10468828;28;20044;-26
2021/08/14 14:20:24;;;;;;;0.00;0.00;;;;;;;;;;10475018;28;20064;-26
2021/08/14 14:25:27;;;;;;;0.00;0.00;;;;;;;;;;10472276;28;20449;-26
2021/08/14 14:30:31;;;;;;;0.00;0.00;;;;;;;;;;10482805;28;20041;-26
2021/08/14 14:35:34;;;;;;;0.00;0.00;;;;;;;;;;10478565;28;20047;-26
2021/08/14 14:40:36;;;;;;;0.00;0.00;;;;;;;;;;10478648;28;20052;-26
2021/08/14 14:45:40;;;;;;;0.00;0.00;;;;;;;;;;10477089;28;20049;-26
2021/08/14 14:50:43;;;;;;;0.00;0.00;;;;;;;;;;10479063;28;20048;-27
2021/08/14 14:55:46;;;;;;;0.00;0.00;;;;;;;;;;10479154;28;20750;-28
2021/08/14 15:00:50;;;;;;;0.00;0.00;;;;;;;;;;10484254;28;20047;-26
2021/08/14 15:05:53;;;;;;;0.00;0.00;;;;;;;;;;10479449;28;20490;-26
2021/08/14 15:10:56;;;;;;;0.00;0.00;;;;;;;;;;10476509;28;20044;-26
2021/08/14 15:16:00;;;;;;;0.00;0.00;;;;;;;;;;10478638;28;20382;-26
2021/08/14 15:21:03;;;;;;;0.00;0.00;;;;;;;;;;10480043;28;21049;-27
2021/08/14 15:26:06;;;;;;;0.15;0.00;;;;;;;;;;10477512;28;20073;-26
2021/08/14 15:31:13;;;;;;;0.10;0.00;;;;;;;;;;10479242;28;20037;-26
2021/08/14 15:36:15;;;;;;;0.10;0.00;;;;;;;;;;10478704;28;20129;-26
2021/08/14 15:41:18;;;;;;;0.00;0.00;;;;;;;;;;10475307;28;20041;-26
2021/08/14 15:46:22;;;;;;;0.00;0.00;;;;;;;;;;10477558;28;20394;-26
2021/08/14 15:51:25;;;;;;;0.00;0.00;;;;;;;;;;10477382;28;20108;-27
2021/08/14 15:56:28;;;;;;;0.00;0.00;;;;;;;;;;10474528;28;20052;-26
2021/08/14 16:01:32;;;;;;;0.00;0.00;;;;;;;;;;10478687;28;20041;-26
2021/08/14 16:06:35;;;;;;;0.00;0.00;;;;;;;;;;10476576;28;20063;-26
2021/08/14 16:11:38;;;;;;;0.03;0.00;;;;;;;;;;10478339;28;20046;-26
2021/08/14 16:16:42;;;;;;;0.00;0.00;;;;;;;;;;10474074;28;20052;-26
2021/08/14 16:21:45;;;;;;;0.43;0.00;;;;;;;;;;10474692;28;20494;-26
2021/08/14 16:26:47;;;;;;;0.00;0.00;;;;;;;;;;10474918;28;20056;-26
2021/08/14 16:31:51;;;;;;;0.00;0.00;;;;;;;;;;10480853;28;20056;-26
2021/08/14 16:36:54;;;;;;;0.00;0.00;;;;;;;;;;10475436;28;20123;-25
2021/08/14 16:41:57;;;;;;;0.00;0.00;;;;;;;;;;10480960;28;20036;-27
2021/08/14 16:47:02;;;;;;;0.00;0.00;;;;;;;;;;10471860;28;20044;-26
2021/08/14 16:52:05;;;;;;;0.00;0.00;;;;;;;;;;10479182;28;20135;-27
2021/08/14 16:57:08;;;;;;;0.00;0.00;;;;;;;;;;10465625;28;20059;-25
2021/08/14 17:02:15;;;;;;;0.00;0.00;;;;;;;;;;10478557;28;20044;-26
2021/08/14 17:07:18;;;;;;;0.00;0.00;;;;;;;;;;10473966;28;20044;-27
2021/08/14 17:12:21;;;;;;;0.00;0.00;;;;;;;;;;10477276;28;20040;-26
2021/08/14 17:17:26;;;;;;;0.00;0.00;;;;;;;;;;10473794;28;20051;-27
2021/08/14 17:22:30;;;;;;;0.10;0.00;;;;;;;;;;10473750;28;20040;-26
2021/08/14 17:27:33;;;;;;;0.00;0.00;;;;;;;;;;10472400;28;20501;-26
2021/08/14 17:32:37;;;;;;;0.00;0.00;;;;;;;;;;10474405;28;20040;-27
2021/08/14 17:37:39;;;;;;;0.00;0.00;;;;;;;;;;10470933;28;20478;-26
2021/08/14 17:42:42;;;;;;;0.00;0.00;;;;;;;;;;10473921;28;20056;-27
2021/08/14 17:47:46;;;;;;;0.00;0.00;;;;;;;;;;10475249;28;20051;-27
2021/08/14 17:52:49;;;;;;;0.00;0.00;;;;;;;;;;10470715;28;20402;-27
2021/08/14 17:57:52;;;;;;;0.00;0.00;;;;;;;;;;10469836;28;20055;-28
2021/08/14 18:02:56;;;;;;;0.00;0.00;;;;;;;;;;10476967;28;20041;-28
2021/08/14 18:08:00;;;;;;;0.00;0.00;;;;;;;;;;10479334;28;20060;-28
2021/08/14 18:13:03;;;;;;;0.00;0.00;;;;;;;;;;10479563;28;20493;-27
2021/08/14 18:18:07;;;;;;;0.00;0.00;;;;;;;;;;10480281;28;20041;-28
2021/08/14 18:23:11;;;;;;;0.00;0.00;;;;;;;;;;10478834;28;20041;-27
2021/08/14 18:28:14;;;;;;;0.00;0.00;;;;;;;;;;10476329;28;20049;-27
2021/08/14 18:33:18;;;;;;;0.00;0.00;;;;;;;;;;10479641;28;20037;-27
2021/08/14 18:38:21;;;;;;;0.00;0.00;;;;;;;;;;10478769;28;20033;-27
2021/08/14 18:43:24;;;;;;;0.00;0.00;;;;;;;;;;10481784;28;20141;-27
2021/08/14 18:48:28;;;;;;;0.00;0.00;;;;;;;;;;10479248;28;20044;-28
2021/08/14 18:53:32;;;;;;;0.00;0.00;;;;;;;;;;10481822;28;20056;-29
2021/08/14 18:58:35;;;;;;;0.00;0.00;;;;;;;;;;10475532;28;20044;-28
2021/08/14 19:03:39;;;;;;;0.00;0.00;;;;;;;;;;10479529;28;20048;-27
2021/08/14 19:08:42;;;;;;;0.00;0.00;;;;;;;;;;10475528;28;20048;-28
2021/08/14 19:13:45;;;;;;;0.00;0.00;;;;;;;;;;10477824;28;20058;-27
2021/08/14 19:18:51;;;;;;;0.00;0.00;;;;;;;;;;10477224;28;20049;-28
2021/08/14 19:24:01;;;;;;;0.00;0.00;;;;;;;;;;10476672;28;20063;-27
2021/08/14 19:29:05;;;;;;;0.00;0.00;;;;;;;;;;10474386;28;20067;-27
2021/08/14 19:34:11;;;;;;;0.00;0.00;;;;;;;;;;10473077;28;20135;-27
2021/08/14 19:39:15;;;;;;;0.00;0.00;;;;;;;;;;10466628;28;20088;-27
2021/08/14 19:44:18;;;;;;;0.00;0.00;;;;;;;;;;10474698;28;20043;-27
2021/08/14 19:49:22;;;;;;;0.00;0.00;;;;;;;;;;10476602;28;20060;-27
2021/08/14 19:54:25;;;;;;;0.00;0.00;;;;;;;;;;10475155;28;20761;-27
2021/08/14 19:59:40;;;;;;;0.00;0.00;;;;;;;;;;10473663;28;20036;-28
2021/08/14 20:04:44;;;;;;;0.00;0.00;;;;;;;;;;10473930;28;20044;-27
2021/08/14 20:09:47;;;;;;;0.00;0.00;;;;;;;;;;10472521;28;20039;-28
2021/08/14 20:14:49;;;;;;;0.00;0.00;;;;;;;;;;10469519;28;20456;-27
2021/08/14 20:19:54;;;;;;;0.00;0.00;;;;;;;;;;10477239;28;20052;-29
2021/08/14 20:24:56;;;;;;;0.00;0.00;;;;;;;;;;10468452;28;20048;-28
2021/08/14 20:29:59;;;;;;;0.00;0.00;;;;;;;;;;10469473;28;20037;-28
2021/08/14 20:35:03;;;;;;;0.00;0.00;;;;;;;;;;10470296;28;20063;-30
2021/08/14 20:40:07;;;;;;;0.10;0.00;;;;;;;;;;10473831;28;20139;-29
2021/08/14 20:45:15;;;;;;;0.00;0.00;;;;;;;;;;10461246;28;20056;-28
2021/08/14 20:50:19;;;;;;;0.00;0.00;;;;;;;;;;10475967;28;20036;-28
2021/08/14 20:55:40;;;;;;;0.00;0.00;;;;;;;;;;10468135;28;20062;-28
2021/08/14 21:00:44;;;;;;;0.00;0.00;;;;;;;;;;10475127;28;20067;-30
2021/08/14 21:05:48;;;;;;;0.80;0.00;;;;;;;;;;10471462;28;20047;-29
2021/08/14 21:10:51;;;;;;;0.80;0.00;;;;;;;;;;10468596;28;20044;-29
2021/08/14 21:16:14;;;;;;;0.00;0.00;;;;;;;;;;10468260;28;20411;-28
2021/08/14 21:21:19;;;;;;;0.00;0.00;;;;;;;;;;10457809;28;20045;-28
2021/08/14 21:26:21;;;;;;;0.00;0.00;;;;;;;;;;10468957;28;20051;-28
2021/08/14 21:31:24;;;;;;;0.00;0.00;;;;;;;;;;10473496;28;20041;-30
2021/08/14 21:36:28;;;;;;;0.00;0.00;;;;;;;;;;10467721;28;20044;-30
2021/08/14 21:41:33;;;;;;;0.00;0.00;;;;;;;;;;10471930;28;20483;-29
2021/08/14 21:46:36;;;;;;;0.00;0.00;;;;;;;;;;10463514;28;20033;-29
2021/08/14 21:51:41;;;;;;;0.00;0.00;;;;;;;;;;10472331;28;20099;-29
2021/08/14 21:56:44;;;;;;;0.00;0.00;;;;;;;;;;10469952;28;20048;-28
2021/08/14 22:01:46;;;;;;;0.00;0.00;;;;;;;;;;10474452;28;20098;-28
2021/08/14 22:06:51;;;;;;;0.00;0.00;;;;;;;;;;10469008;28;20044;-28
2021/08/14 22:11:55;;;;;;;0.00;0.00;;;;;;;;;;10471681;28;20044;-28
2021/08/14 22:16:58;;;;;;;0.00;0.00;;;;;;;;;;10470132;28;20040;-28
2021/08/14 22:22:03;;;;;;;0.00;0.00;;;;;;;;;;10473519;28;20734;-28
2021/08/14 22:27:07;;;;;;;0.00;0.00;;;;;;;;;;10468330;28;20510;-29
2021/08/14 22:32:10;;;;;;;0.00;0.00;;;;;;;;;;10471526;28;20509;-28
2021/08/14 22:37:14;;;;;;;0.00;0.00;;;;;;;;;;10468940;28;20047;-29
2021/08/14 22:42:18;;;;;;;0.00;0.00;;;;;;;;;;10472331;28;20052;-29
2021/08/14 22:47:21;;;;;;;0.00;0.00;;;;;;;;;;10467674;28;20052;-28
2021/08/14 22:52:23;;;;;;;0.00;0.00;;;;;;;;;;10477168;28;20044;-28
2021/08/14 22:57:27;;;;;;;0.00;0.00;;;;;;;;;;10472509;28;20421;-29
2021/08/14 23:02:30;;;;;;;0.00;0.00;;;;;;;;;;10476964;28;20523;-29
2021/08/14 23:07:33;;;;;;;0.05;0.00;;;;;;;;;;10477526;28;20494;-28
2021/08/14 23:12:38;;;;;;;0.00;0.00;;;;;;;;;;10476892;28;20053;-28
2021/08/14 23:17:42;;;;;;;0.00;0.00;;;;;;;;;;10476358;28;20088;-28
2021/08/14 23:22:44;;;;;;;0.00;0.00;;;;;;;;;;10477083;28;20040;-29
2021/08/14 23:27:52;;;;;;;0.00;0.00;;;;;;;;;;10476804;28;20049;-28
2021/08/14 23:32:58;;;;;;;0.00;0.00;;;;;;;;;;10477193;28;20131;-28
2021/08/14 23:38:01;;;;;;;0.00;0.00;;;;;;;;;;10476836;28;20076;-28
2021/08/14 23:43:04;;;;;;;0.00;0.00;;;;;;;;;;10478925;28;20044;-28
2021/08/14 23:48:08;;;;;;;0.00;0.00;;;;;;;;;;10475391;28;20052;-28
2021/08/14 23:53:11;;;;;;;0.00;0.00;;;;;;;;;;10475073;28;20064;-28
2021/08/14 23:58:14;;;;;;;0.00;0.00;;;;;;;;;;10475500;28;20052;-28
